KNZY/NZY METAR and TAF weather

Enter ICAO airport designator
Station Type Date Time Source
KNZY METAR 2019/08/20 09:52 UTC NOAA

KNZY 200952Z 34004KT 10SM BKN011 20/17 A2992 RMK AO2 SLP130 T02000167 $


Station Type Date Time Source
KNZY Decoded METAR 2019/08/20 09:52 UTC NOAA

NAS NORTH ISLAND, SAN DIEGO, CA, United States (KNZY) 32-42N 117-13W 14M
Aug 20, 2019 - 05:52 AM EDT / 2019.08.20 0952 UTC
Wind: from the NNW (340 degrees) at 5 MPH (4 KT):0
Visibility: 10 mile(s):0
Sky conditions: mostly cloudy
Temperature: 68.0 F (20.0 C)
Dew Point: 62.1 F (16.7 C)
Relative Humidity: 81%
Pressure (altimeter): 29.92 in. Hg (1013 hPa)
ob: KNZY 200952Z 34004KT 10SM BKN011 20/17 A2992 RMK AO2 SLP130 T02000167
cycle: 10

Station Type Date Time Source
KNZY TAF 2019/08/20 07:03 UTC NOAA

TAF KNZY 2007/2107 VRB06KT 9999 BKN011 QNH2986INS
TEMPO 2009/2015 OVC008
FM201600 31008KT 9999 FEW015 FEW200 QNH2990INS T18/2013Z T24/2020Z FS30144

Example: see airport list